Archival Weather

Václav Havel Intl Apt

Prague, Czechia (LKPR)

Report from: Monday, May 29, 2023 1:30 PM CEST
Current time: Tuesday, February 27, 2024 11:29 AM CET

Current weather – Weather history – Daily summaries
Weather forecast

Temperature21.0°C (69.8°F)
Dew point4.0°C (39.2°F)
Winds 7 kts (3.6 m/s, 8.1 mph) Vrb
Winds variableWinds variable from North-Northwest (340°) to East-Northeast (60°)
Clouds Sky clear
Altimeter30.12 in.Hg (1020 mB)
Relative humidity33 %
Density altitude596 ft. (182 m)
Remarks Ceiling and visibility OK
No significant changes expected in the next two hours
Flight conditions Visual Meteorological Conditions
Raw dataLKPR 291130Z 02007KT 340V060 CAVOK 21/04 Q1020 NOSIG
An error has occurred. This application may no longer respond until reloaded. Reload 🗙